createdAt,value
2022-11-10T00:01:56.934Z,99798.62
2022-11-10T00:04:42.864Z,99796.16
2022-11-10T00:07:29.128Z,99799.34
2022-11-10T00:10:15.715Z,99802.81
2022-11-10T00:13:02.879Z,99796.53
2022-11-10T00:15:49.204Z,99802.13
2022-11-10T00:18:35.615Z,99809.81
2022-11-10T00:21:21.669Z,99812.88
2022-11-10T00:24:07.753Z,99817.06
2022-11-10T00:26:54.796Z,99817.87
2022-11-10T00:29:41.635Z,99815.50
2022-11-10T00:32:27.735Z,99812.59
2022-11-10T00:35:13.898Z,99818.97
2022-11-10T00:37:59.999Z,99815.03
2022-11-10T00:40:46.716Z,99816.53
2022-11-10T00:43:33.105Z,99819.56
2022-11-10T00:46:19.884Z,99819.56
2022-11-10T00:49:06.081Z,99813.19
2022-11-10T00:51:52.296Z,99817.87
2022-11-10T00:54:38.281Z,99812.00
2022-11-10T00:57:24.277Z,99810.50
2022-11-10T01:00:10.545Z,99810.69
2022-11-10T01:02:57.111Z,99823.66
2022-11-10T01:05:44.185Z,99815.88
2022-11-10T01:08:30.094Z,99826.44
2022-11-10T01:11:23.614Z,99825.78
2022-11-10T01:14:09.915Z,99811.94
2022-11-10T01:16:56.018Z,99812.00
2022-11-10T01:19:42.449Z,99818.78
2022-11-10T01:22:28.526Z,99818.16
2022-11-10T01:25:14.857Z,99815.12
2022-11-10T01:28:00.981Z,99815.00
2022-11-10T01:30:47.077Z,99814.78
2022-11-10T01:33:33.629Z,99820.31
2022-11-10T01:36:19.812Z,99818.56
2022-11-10T01:39:05.893Z,99817.53
2022-11-10T01:41:51.975Z,99816.13
2022-11-10T01:44:39.548Z,99818.16
2022-11-10T01:47:25.934Z,99814.03
2022-11-10T01:50:12.178Z,99810.75
2022-11-10T01:53:01.378Z,99816.78
2022-11-10T01:55:47.945Z,99819.97
2022-11-10T01:58:37.712Z,99810.50
2022-11-10T02:01:24.380Z,99810.97
2022-11-10T02:04:13.528Z,99811.97
2022-11-10T02:06:59.629Z,99814.66
2022-11-10T02:09:46.344Z,99811.16
2022-11-10T02:12:32.562Z,99817.75
2022-11-10T02:15:18.877Z,99819.66
2022-11-10T02:18:05.397Z,99829.97
2022-11-10T02:20:51.319Z,99824.66
2022-11-10T02:23:37.450Z,99829.88
2022-11-10T02:26:25.932Z,99832.41
2022-11-10T02:29:12.662Z,99831.16
2022-11-10T02:31:58.835Z,99832.50
2022-11-10T02:34:44.963Z,99832.81
2022-11-10T02:37:31.361Z,99833.25
2022-11-10T02:40:17.649Z,99841.13
2022-11-10T02:43:06.525Z,99837.91
2022-11-10T02:45:52.476Z,99837.25
2022-11-10T02:48:38.807Z,99844.97
2022-11-10T02:51:24.979Z,99843.81
2022-11-10T02:54:10.893Z,99844.12
2022-11-10T02:56:56.780Z,99839.66
2022-11-10T02:59:47.251Z,99845.50
2022-11-10T03:02:33.849Z,99854.50
2022-11-10T03:05:20.003Z,99858.59
2022-11-10T03:08:06.060Z,99854.78
2022-11-10T03:10:56.475Z,99862.38
2022-11-10T03:14:00.249Z,99863.47
2022-11-10T03:16:47.356Z,99866.97
2022-11-10T03:19:33.847Z,99875.72
2022-11-10T03:22:19.680Z,99877.75
2022-11-10T03:25:06.374Z,99875.62
2022-11-10T03:27:52.239Z,99875.03
2022-11-10T03:30:38.940Z,99880.31
2022-11-10T03:33:25.340Z,99879.03
2022-11-10T03:36:11.843Z,99888.03
2022-11-10T03:38:57.899Z,99886.69
2022-11-10T03:41:43.863Z,99893.09
2022-11-10T03:44:29.777Z,99886.13
2022-11-10T03:47:15.671Z,99889.72
2022-11-10T03:50:01.660Z,99887.41
2022-11-10T03:52:47.838Z,99892.81
2022-11-10T03:55:33.882Z,99898.97
2022-11-10T03:58:19.831Z,99898.97
2022-11-10T04:01:05.784Z,99891.72
2022-11-10T04:03:52.244Z,99895.09
2022-11-10T04:06:37.986Z,99891.34
2022-11-10T04:09:24.110Z,99898.59
2022-11-10T04:12:10.436Z,99903.50
2022-11-10T04:14:56.534Z,99911.78
2022-11-10T04:17:49.431Z,99920.81
2022-11-10T04:20:35.778Z,99917.25
2022-11-10T04:23:23.730Z,99917.75
2022-11-10T04:26:12.399Z,99924.53
2022-11-10T04:29:03.111Z,99926.00
2022-11-10T04:31:49.064Z,99924.09
2022-11-10T04:34:35.074Z,99921.62
2022-11-10T04:37:20.820Z,99923.81
2022-11-10T04:40:07.233Z,99924.63
2022-11-10T04:42:57.475Z,99919.53
2022-11-10T04:45:43.955Z,99922.44
2022-11-10T04:48:30.619Z,99928.75
2022-11-10T04:51:18.381Z,99939.34
2022-11-10T04:54:06.557Z,99928.41
2022-11-10T04:56:52.246Z,99923.13
2022-11-10T04:59:38.387Z,99929.56
2022-11-10T05:02:24.677Z,99931.56
2022-11-10T05:05:10.530Z,99927.78
2022-11-10T05:07:56.661Z,99930.34
2022-11-10T05:10:43.579Z,99934.84
2022-11-10T05:13:29.824Z,99939.41
2022-11-10T05:16:15.780Z,99950.50
2022-11-10T05:19:01.738Z,99948.41
2022-11-10T05:21:48.095Z,99956.37
2022-11-10T05:24:34.582Z,99962.78
2022-11-10T05:27:20.698Z,99967.94
2022-11-10T05:30:07.857Z,99969.63
2022-11-10T05:32:53.851Z,99968.66
2022-11-10T05:35:40.041Z,99972.16
2022-11-10T05:38:26.321Z,99979.13
2022-11-10T05:41:12.630Z,99979.41
2022-11-10T05:43:58.501Z,99987.78
2022-11-10T05:46:44.502Z,99993.44
2022-11-10T05:49:30.519Z,99997.12
2022-11-10T05:52:16.468Z,100000.06
2022-11-10T05:55:02.841Z,100002.28
2022-11-10T05:57:50.856Z,100015.34
2022-11-10T06:00:36.695Z,100015.19
2022-11-10T06:03:23.157Z,100020.91
2022-11-10T06:06:09.436Z,100021.78
2022-11-10T06:08:57.035Z,100032.16
2022-11-10T06:11:43.168Z,100029.47
2022-11-10T06:14:29.356Z,100046.53
2022-11-10T06:17:15.367Z,100043.87
2022-11-10T06:20:01.382Z,100051.69
2022-11-10T06:23:16.856Z,100044.50
2022-11-10T06:26:03.019Z,100050.87
2022-11-10T06:28:49.106Z,100058.44
2022-11-10T06:31:35.110Z,100062.72
2022-11-10T06:34:21.088Z,100069.84
2022-11-10T06:37:07.524Z,100074.87
2022-11-10T06:39:54.107Z,100077.59
2022-11-10T06:42:40.361Z,100081.16
2022-11-10T06:45:27.152Z,100079.81
2022-11-10T06:48:13.883Z,100083.41
2022-11-10T06:51:01.048Z,100080.91
2022-11-10T06:53:47.065Z,100089.25
2022-11-10T06:56:33.119Z,100092.41
2022-11-10T06:59:19.276Z,100104.97
2022-11-10T07:02:05.612Z,100101.31
2022-11-10T07:04:51.504Z,100103.66
2022-11-10T07:07:37.863Z,100109.66
2022-11-10T07:10:24.147Z,100112.13
2022-11-10T07:13:10.941Z,100109.97
2022-11-10T07:15:57.009Z,100109.75
2022-11-10T07:18:43.039Z,100116.81
2022-11-10T07:21:29.199Z,100123.44
2022-11-10T07:24:15.426Z,100118.91
2022-11-10T07:27:01.581Z,100128.19
2022-11-10T07:29:47.658Z,100125.06
2022-11-10T07:32:33.896Z,100133.56
2022-11-10T07:35:20.100Z,100133.72
2022-11-10T07:38:08.288Z,100143.00
2022-11-10T07:40:55.120Z,100139.03
2022-11-10T07:43:41.306Z,100148.19
2022-11-10T07:46:27.726Z,100153.84
2022-11-10T07:49:13.744Z,100158.25
2022-11-10T07:51:59.773Z,100162.63
2022-11-10T07:54:45.751Z,100168.53
2022-11-10T07:57:33.266Z,100166.63
2022-11-10T08:00:19.845Z,100168.81
2022-11-10T08:03:08.121Z,100173.31
2022-11-10T08:05:57.356Z,100172.31
2022-11-10T08:08:43.591Z,100174.50
2022-11-10T08:11:32.608Z,100179.78
2022-11-10T08:14:18.670Z,100189.22
2022-11-10T08:17:04.554Z,100188.12
2022-11-10T08:19:50.676Z,100197.53
2022-11-10T08:22:36.665Z,100197.75
2022-11-10T08:25:22.782Z,100202.59
2022-11-10T08:28:10.958Z,100203.66
2022-11-10T08:31:01.514Z,100203.81
2022-11-10T08:33:50.570Z,100209.59
2022-11-10T08:36:36.938Z,100212.88
2022-11-10T08:39:38.121Z,100211.50
2022-11-10T08:42:25.098Z,100220.34
2022-11-10T08:45:11.308Z,100227.41
2022-11-10T08:47:58.474Z,100230.53
2022-11-10T08:50:44.814Z,100235.41
2022-11-10T08:53:30.904Z,100246.72
2022-11-10T08:56:16.925Z,100241.50
2022-11-10T08:59:02.700Z,100247.09
2022-11-10T09:01:49.065Z,100243.53
2022-11-10T09:04:35.509Z,100250.34
2022-11-10T09:07:21.757Z,100253.28
2022-11-10T09:10:08.419Z,100259.03
2022-11-10T09:12:58.288Z,100261.16
2022-11-10T09:15:44.263Z,100264.00
2022-11-10T09:18:31.154Z,100271.88
2022-11-10T09:21:17.259Z,100277.22
2022-11-10T09:24:03.589Z,100292.41
2022-11-10T09:26:49.744Z,100283.78
2022-11-10T09:29:35.772Z,100290.25
2022-11-10T09:32:21.772Z,100283.63
2022-11-10T09:35:07.900Z,100288.63
2022-11-10T09:37:54.269Z,100288.72
2022-11-10T09:40:58.965Z,100284.44
2022-11-10T09:44:13.067Z,100282.59
2022-11-10T09:47:00.753Z,100291.19
2022-11-10T09:49:51.468Z,100289.91
2022-11-10T09:52:37.915Z,100299.53
2022-11-10T09:55:32.913Z,100291.97
2022-11-10T09:58:21.940Z,100299.62
2022-11-10T10:01:08.293Z,100301.47
2022-11-10T10:04:10.614Z,100295.44
2022-11-10T10:07:25.378Z,100295.56
2022-11-10T10:10:23.192Z,100306.06
2022-11-10T10:13:30.926Z,100303.00
2022-11-10T10:16:24.733Z,100300.81
2022-11-10T10:19:34.401Z,100303.50
2022-11-10T10:22:29.592Z,100315.69
2022-11-10T10:25:21.949Z,100310.81
2022-11-10T10:28:23.334Z,100323.28
2022-11-10T10:31:19.029Z,100326.25
2022-11-10T10:34:11.557Z,100334.91
2022-11-10T10:36:57.771Z,100327.75
2022-11-10T10:39:47.191Z,100334.22
2022-11-10T10:42:35.496Z,100342.47
2022-11-10T10:45:29.099Z,100345.37
2022-11-10T10:48:27.401Z,100341.47
2022-11-10T10:51:30.827Z,100341.87
2022-11-10T10:54:26.869Z,100336.91
2022-11-10T10:57:26.948Z,100346.56
2022-11-10T11:00:22.056Z,100332.69
2022-11-10T11:03:14.153Z,100339.78
2022-11-10T11:06:03.987Z,100338.75
2022-11-10T11:08:58.301Z,100339.09
2022-11-10T11:11:46.544Z,100347.97
2022-11-10T11:14:32.934Z,100349.56
2022-11-10T11:17:22.585Z,100337.62
2022-11-10T11:20:15.287Z,100337.09
2022-11-10T11:23:15.741Z,100327.78
2022-11-10T11:26:14.711Z,100330.06
2022-11-10T11:29:42.352Z,100321.75
2022-11-10T11:32:56.826Z,100326.94
2022-11-10T11:36:03.404Z,100333.31
2022-11-10T11:39:16.097Z,100342.75
2022-11-10T11:42:15.293Z,100346.09
2022-11-10T11:45:13.670Z,100351.97
2022-11-10T11:48:05.851Z,100351.47
2022-11-10T11:51:04.235Z,100361.78
2022-11-10T11:54:11.404Z,100358.84
2022-11-10T11:57:13.244Z,100361.16
2022-11-10T12:00:17.659Z,100362.72
2022-11-10T12:03:25.528Z,100363.06
2022-11-10T12:06:20.705Z,100368.66
2022-11-10T12:09:25.049Z,100369.56
2022-11-10T12:12:35.826Z,100372.25
2022-11-10T12:16:00.163Z,100371.16
2022-11-10T12:18:51.542Z,100367.16
2022-11-10T12:21:51.139Z,100363.38
2022-11-10T12:25:02.914Z,100371.66
2022-11-10T12:28:20.443Z,100378.59
2022-11-10T12:31:12.493Z,100368.97
2022-11-10T12:34:04.179Z,100373.63
2022-11-10T12:36:50.718Z,100381.03
2022-11-10T12:39:44.125Z,100386.25
2022-11-10T12:42:31.288Z,100375.53
2022-11-10T12:45:21.333Z,100386.31
2022-11-10T12:48:10.708Z,100393.56
2022-11-10T12:51:02.129Z,100383.22
2022-11-10T12:53:48.465Z,100380.34
2022-11-10T12:56:39.177Z,100385.00
2022-11-10T12:59:31.142Z,100388.31
2022-11-10T13:02:18.884Z,100395.16
2022-11-10T13:05:13.595Z,100399.13
2022-11-10T13:08:14.423Z,100408.88
2022-11-10T13:11:04.114Z,100413.59
2022-11-10T13:13:59.722Z,100408.19
2022-11-10T13:16:51.794Z,100403.78
2022-11-10T13:19:37.988Z,100413.19
2022-11-10T13:22:29.997Z,100417.13
2022-11-10T13:25:37.868Z,100424.56
2022-11-10T13:28:56.587Z,100417.16
2022-11-10T13:31:50.611Z,100420.34
2022-11-10T13:34:40.565Z,100420.72
2022-11-10T13:37:29.414Z,100421.19
2022-11-10T13:40:24.873Z,100429.28
2022-11-10T13:43:23.641Z,100428.72
2022-11-10T13:46:09.950Z,100419.72
2022-11-10T13:49:15.645Z,100431.28
2022-11-10T13:52:14.003Z,100428.94
2022-11-10T13:55:00.233Z,100423.72
2022-11-10T13:58:18.165Z,100435.28
2022-11-10T14:01:17.120Z,100447.88
2022-11-10T14:04:03.823Z,100456.16
2022-11-10T14:06:54.558Z,100450.56
2022-11-10T14:09:50.676Z,100453.25
2022-11-10T14:12:49.037Z,100452.31
2022-11-10T14:15:40.162Z,100450.22
2022-11-10T14:18:39.531Z,100460.41
2022-11-10T14:21:44.378Z,100461.78
2022-11-10T14:24:54.611Z,100468.19
2022-11-10T14:27:41.266Z,100460.25
2022-11-10T14:30:28.992Z,100466.72
2022-11-10T14:33:15.463Z,100469.41
2022-11-10T14:36:04.465Z,100480.94
2022-11-10T14:38:52.224Z,100482.72
2022-11-10T14:41:46.250Z,100484.81
2022-11-10T14:44:34.045Z,100486.25
2022-11-10T14:47:28.609Z,100488.37
2022-11-10T14:50:15.143Z,100493.25
2022-11-10T14:53:12.549Z,100500.53
2022-11-10T14:56:00.048Z,100498.84
2022-11-10T14:58:47.146Z,100501.00
2022-11-10T15:01:33.112Z,100510.03
2022-11-10T15:04:19.768Z,100509.06
2022-11-10T15:07:06.059Z,100498.91
2022-11-10T15:10:15.796Z,100494.44
2022-11-10T15:13:14.030Z,100506.91
2022-11-10T15:16:31.836Z,100507.47
2022-11-10T15:19:46.499Z,100514.25
2022-11-10T15:22:36.364Z,100510.66
2022-11-10T15:25:24.089Z,100517.88
2022-11-10T15:28:13.457Z,100518.19
2022-11-10T15:31:04.730Z,100521.16
2022-11-10T15:33:54.126Z,100526.50
2022-11-10T15:36:40.061Z,100535.97
2022-11-10T15:39:26.756Z,100539.41
2022-11-10T15:42:18.733Z,100543.94
2022-11-10T15:45:05.552Z,100540.75
2022-11-10T15:47:51.700Z,100542.91
2022-11-10T15:50:38.309Z,100548.03
2022-11-10T15:53:33.230Z,100547.19
2022-11-10T15:56:21.365Z,100546.91
2022-11-10T15:59:10.222Z,100554.00
2022-11-10T16:01:57.561Z,100564.84
2022-11-10T16:04:43.922Z,100564.28
2022-11-10T16:07:30.018Z,100564.84
2022-11-10T16:10:16.193Z,100563.19
2022-11-10T16:13:02.242Z,100567.47
2022-11-10T16:15:48.606Z,100572.31
2022-11-10T16:18:38.861Z,100577.72
2022-11-10T16:21:27.402Z,100580.44
2022-11-10T16:24:13.329Z,100579.09
2022-11-10T16:26:59.284Z,100584.00
2022-11-10T16:29:45.973Z,100576.22
2022-11-10T16:32:32.066Z,100582.38
2022-11-10T16:35:17.983Z,100589.41
2022-11-10T16:38:10.788Z,100596.41
2022-11-10T16:41:00.979Z,100606.63
2022-11-10T16:43:47.363Z,100612.38
2022-11-10T16:46:36.306Z,100621.47
2022-11-10T16:49:31.279Z,100618.25
2022-11-10T16:52:19.039Z,100613.16
2022-11-10T16:55:05.705Z,100618.81
2022-11-10T16:57:51.601Z,100628.06
2022-11-10T17:00:38.330Z,100631.28
2022-11-10T17:03:36.421Z,100634.22
2022-11-10T17:06:25.090Z,100645.00
2022-11-10T17:09:18.165Z,100654.97
2022-11-10T17:12:04.848Z,100647.41
2022-11-10T17:14:50.976Z,100649.28
2022-11-10T17:17:37.371Z,100657.63
2022-11-10T17:20:28.679Z,100663.53
2022-11-10T17:23:16.511Z,100672.16
2022-11-10T17:26:03.100Z,100674.03
2022-11-10T17:28:49.711Z,100675.66
2022-11-10T17:31:35.858Z,100679.12
2022-11-10T17:34:22.032Z,100679.97
2022-11-10T17:37:12.404Z,100692.56
2022-11-10T17:39:59.055Z,100688.00
2022-11-10T17:42:45.416Z,100689.34
2022-11-10T17:45:31.645Z,100684.25
2022-11-10T17:48:20.861Z,100696.88
2022-11-10T17:51:11.921Z,100697.66
2022-11-10T17:53:57.832Z,100708.16
2022-11-10T17:56:43.995Z,100708.16
2022-11-10T17:59:30.533Z,100713.78
2022-11-10T18:02:20.050Z,100713.53
2022-11-10T18:05:06.957Z,100721.03
2022-11-10T18:07:53.190Z,100717.81
2022-11-10T18:10:50.179Z,100723.19
2022-11-10T18:13:40.890Z,100726.16
2022-11-10T18:16:27.209Z,100727.22
2022-11-10T18:19:16.096Z,100728.28
2022-11-10T18:22:02.368Z,100730.41
2022-11-10T18:24:48.954Z,100732.06
2022-11-10T18:27:35.824Z,100733.09
2022-11-10T18:30:22.028Z,100733.09
2022-11-10T18:33:09.620Z,100743.03
2022-11-10T18:36:03.793Z,100741.63
2022-11-10T18:38:50.237Z,100747.31
2022-11-10T18:41:36.235Z,100755.56
2022-11-10T18:44:22.462Z,100758.00
2022-11-10T18:47:11.737Z,100763.97
2022-11-10T18:49:58.455Z,100774.16
2022-11-10T18:52:45.229Z,100782.13
2022-11-10T18:55:31.534Z,100785.38
2022-11-10T18:58:17.955Z,100784.09
2022-11-10T19:01:11.568Z,100799.69
2022-11-10T19:03:58.042Z,100797.97
2022-11-10T19:06:44.317Z,100804.34
2022-11-10T19:09:30.961Z,100813.19
2022-11-10T19:12:16.963Z,100825.59
2022-11-10T19:15:03.543Z,100827.28
2022-11-10T19:17:50.134Z,100824.34
2022-11-10T19:20:36.786Z,100830.06
2022-11-10T19:23:23.318Z,100836.44
2022-11-10T19:26:20.856Z,100829.16
2022-11-10T19:29:10.391Z,100831.50
2022-11-10T19:31:57.656Z,100827.22
2022-11-10T19:34:44.670Z,100830.78
2022-11-10T19:37:34.618Z,100842.03
2022-11-10T19:40:21.735Z,100847.09
2022-11-10T19:43:08.137Z,100849.12
2022-11-10T19:45:54.355Z,100855.09
2022-11-10T19:48:40.795Z,100853.00
2022-11-10T19:51:29.945Z,100852.47
2022-11-10T19:54:16.087Z,100852.72
2022-11-10T19:57:02.325Z,100851.69
2022-11-10T19:59:48.877Z,100865.19
2022-11-10T20:02:35.317Z,100862.22
2022-11-10T20:05:21.671Z,100864.28
2022-11-10T20:08:10.519Z,100861.56
2022-11-10T20:11:02.834Z,100857.69
2022-11-10T20:13:54.495Z,100864.41
2022-11-10T20:16:41.122Z,100863.28
2022-11-10T20:19:27.288Z,100859.94
2022-11-10T20:22:13.568Z,100869.19
2022-11-10T20:24:59.620Z,100873.91
2022-11-10T20:27:46.013Z,100881.75
2022-11-10T20:30:34.952Z,100883.09
2022-11-10T20:33:21.560Z,100870.38
2022-11-10T20:36:19.911Z,100867.56
2022-11-10T20:39:06.954Z,100874.00
2022-11-10T20:41:52.831Z,100883.09
2022-11-10T20:44:40.647Z,100891.28
2022-11-10T20:47:30.058Z,100880.38
2022-11-10T20:50:20.462Z,100888.63
2022-11-10T20:53:10.219Z,100884.16
2022-11-10T20:55:58.612Z,100887.87
2022-11-10T20:58:45.010Z,100887.56
2022-11-10T21:01:31.477Z,100893.00
2022-11-10T21:04:17.462Z,100895.63
2022-11-10T21:07:03.934Z,100909.13
2022-11-10T21:09:50.272Z,100910.09
2022-11-10T21:12:36.469Z,100900.47
2022-11-10T21:15:22.698Z,100906.62
2022-11-10T21:18:09.388Z,100899.53
2022-11-10T21:20:57.632Z,100905.00
2022-11-10T21:23:43.700Z,100907.56
2022-11-10T21:26:34.227Z,100911.87
2022-11-10T21:29:20.585Z,100916.53
2022-11-10T21:32:06.479Z,100914.87
2022-11-10T21:34:52.593Z,100919.66
2022-11-10T21:37:38.551Z,100924.81
2022-11-10T21:40:24.624Z,100916.00
2022-11-10T21:43:10.714Z,100927.28
2022-11-10T21:46:00.287Z,100914.41
2022-11-10T21:48:46.685Z,100917.31
2022-11-10T21:51:32.863Z,100921.22
2022-11-10T21:54:19.118Z,100924.97
2022-11-10T21:57:05.002Z,100929.50
2022-11-10T21:59:51.357Z,100928.09
2022-11-10T22:02:37.034Z,100933.06
2022-11-10T22:05:22.950Z,100935.56
2022-11-10T22:08:09.065Z,100938.00
2022-11-10T22:10:55.216Z,100940.22
2022-11-10T22:13:41.479Z,100952.44
2022-11-10T22:16:44.386Z,100946.75
2022-11-10T22:19:31.272Z,100948.19
2022-11-10T22:22:17.197Z,100958.25
2022-11-10T22:25:03.243Z,100966.09
2022-11-10T22:27:49.402Z,100963.00
2022-11-10T22:30:36.619Z,100969.66
2022-11-10T22:33:22.911Z,100966.09
2022-11-10T22:36:12.724Z,100957.00
2022-11-10T22:39:03.171Z,100968.03
2022-11-10T22:41:49.953Z,100967.09
2022-11-10T22:44:36.271Z,100957.91
2022-11-10T22:47:22.309Z,100962.37
2022-11-10T22:50:08.729Z,100960.13
2022-11-10T22:52:57.254Z,100958.66
2022-11-10T22:55:43.180Z,100956.16
2022-11-10T22:58:29.322Z,100955.84
2022-11-10T23:01:15.373Z,100951.53
2022-11-10T23:04:01.747Z,100948.31
2022-11-10T23:06:47.821Z,100950.56
2022-11-10T23:09:35.026Z,100945.69
2022-11-10T23:12:20.974Z,100955.34
2022-11-10T23:15:07.529Z,100953.31
2022-11-10T23:17:54.367Z,100952.53
2022-11-10T23:20:40.280Z,100955.66
2022-11-10T23:23:27.403Z,100949.13
2022-11-10T23:26:18.970Z,100947.50
2022-11-10T23:29:04.927Z,100951.72
2022-11-10T23:31:50.739Z,100962.31
2022-11-10T23:34:36.642Z,100963.28
2022-11-10T23:37:23.320Z,100961.75
2022-11-10T23:40:09.793Z,100954.59
2022-11-10T23:42:57.782Z,100958.50
2022-11-10T23:46:05.751Z,100956.06
2022-11-10T23:48:49.568Z,100952.66
2022-11-10T23:51:35.771Z,100952.81
2022-11-10T23:54:21.928Z,100954.03
2022-11-10T23:57:07.890Z,100957.12
2022-11-10T23:59:53.993Z,100953.94
